Time,TemperatureF,DewpointF,PressureIn,WindDirection,WindDirectionDegrees,WindSpeedMPH,WindSpeedGustMPH,Humidity,HourlyPrecipIn,Conditions,Clouds,dailyrainin,SoftwareType,DateUTC
2013-02-15 00:14:00,33.1,26.0,30.03,NNE,33,0.0,1.0,76,0.00,,,0.00,weatherlink.com 1.10,2013-02-15 05:14:00,
2013-02-15 00:29:00,34.4,28.0,30.03,NE,49,1.0,2.0,76,0.00,,,0.00,weatherlink.com 1.10,2013-02-15 05:29:00,
2013-02-15 00:44:00,34.3,28.0,30.03,East,86,0.0,2.0,77,0.00,,,0.00,weatherlink.com 1.10,2013-02-15 05:44:00,
2013-02-15 00:59:00,34.0,28.0,30.03,East,79,1.0,2.0,78,0.00,,,0.00,weatherlink.com 1.10,2013-02-15 05:59:00,
2013-02-15 01:14:00,34.1,28.0,30.03,ENE,77,0.0,2.0,79,0.00,,,0.00,weatherlink.com 1.10,2013-02-15 06:14:00,
2013-02-15 01:29:00,34.3,29.0,30.03,ESE,110,2.0,4.0,80,0.00,,,0.00,weatherlink.com 1.10,2013-02-15 06:29:00,
2013-02-15 01:44:00,34.5,29.0,30.02,ESE,112,1.0,2.0,79,0.00,,,0.00,weatherlink.com 1.10,2013-02-15 06:44:00,
2013-02-15 01:59:00,34.8,29.0,30.02,ESE,123,1.0,3.0,78,0.00,,,0.00,weatherlink.com 1.10,2013-02-15 06:59:00,
2013-02-15 02:14:00,34.8,29.0,30.02,East,100,0.0,1.0,78,0.00,,,0.00,weatherlink.com 1.10,2013-02-15 07:14:00,
2013-02-15 02:29:00,34.9,29.0,30.01,ENE,57,0.0,3.0,78,0.00,,,0.00,weatherlink.com 1.10,2013-02-15 07:29:00,
2013-02-15 02:44:00,34.5,29.0,30.02,ESE,111,0.0,3.0,79,0.00,,,0.00,weatherlink.com 1.10,2013-02-15 07:44:00,
2013-02-15 02:59:00,33.7,28.0,30.02,ENE,57,0.0,2.0,80,0.00,,,0.00,weatherlink.com 1.10,2013-02-15 07:59:00,
2013-02-15 03:14:00,33.7,28.0,30.02,NNE,22,1.0,2.0,81,0.00,,,0.00,weatherlink.com 1.10,2013-02-15 08:14:00,
2013-02-15 03:29:00,33.5,29.0,30.02,ENE,74,0.0,3.0,82,0.00,,,0.00,weatherlink.com 1.10,2013-02-15 08:29:00,
2013-02-15 03:44:00,33.2,29.0,30.01,NE,56,1.0,2.0,83,0.00,,,0.00,weatherlink.com 1.10,2013-02-15 08:44:00,
2013-02-15 03:59:00,32.8,29.0,30.02,East,85,1.0,3.0,85,0.00,,,0.00,weatherlink.com 1.10,2013-02-15 08:59:00,
2013-02-15 04:14:00,32.7,29.0,30.02,ENE,57,0.0,3.0,85,0.00,,,0.00,weatherlink.com 1.10,2013-02-15 09:14:00,
2013-02-15 04:29:00,32.6,29.0,30.02,NE,36,0.0,2.0,86,0.00,,,0.00,weatherlink.com 1.10,2013-02-15 09:29:00,
2013-02-15 04:44:00,32.2,29.0,30.02,NNE,27,0.0,2.0,87,0.00,,,0.00,weatherlink.com 1.10,2013-02-15 09:44:00,
2013-02-15 04:59:00,31.9,29.0,30.02,ENE,72,0.0,3.0,87,0.00,,,0.00,weatherlink.com 1.10,2013-02-15 09:59:00,
2013-02-15 05:14:00,31.4,28.0,30.01,NE,47,0.0,1.0,88,0.00,,,0.00,weatherlink.com 1.10,2013-02-15 10:14:00,
2013-02-15 05:30:00,30.8,28.0,30.01,NNE,29,0.0,1.0,90,0.00,,,0.00,weatherlink.com 1.10,2013-02-15 10:30:00,
2013-02-15 05:44:00,30.9,28.0,30.01,NE,46,0.0,1.0,90,0.00,,,0.00,weatherlink.com 1.10,2013-02-15 10:44:00,
2013-02-15 05:59:00,31.0,29.0,30.01,NE,49,0.0,2.0,91,0.00,,,0.00,weatherlink.com 1.10,2013-02-15 10:59:00,
2013-02-15 06:15:00,31.3,29.0,30.01,NNE,19,0.0,1.0,90,0.00,,,0.00,weatherlink.com 1.10,2013-02-15 11:15:00,
2013-02-15 06:29:00,31.0,28.0,30.01,NE,54,0.0,1.0,89,0.00,,,0.00,weatherlink.com 1.10,2013-02-15 11:29:00,
2013-02-15 06:44:00,30.4,28.0,30.02,NE,56,0.0,0.0,90,0.00,,,0.00,weatherlink.com 1.10,2013-02-15 11:44:00,
2013-02-15 06:59:00,29.9,28.0,30.02,NE,55,0.0,0.0,91,0.00,,,0.00,weatherlink.com 1.10,2013-02-15 11:59:00,
2013-02-15 07:14:00,30.7,29.0,30.02,ENE,57,0.0,1.0,93,0.00,,,0.00,weatherlink.com 1.10,2013-02-15 12:14:00,
2013-02-15 07:29:00,31.3,29.0,30.03,ENE,61,0.0,1.0,91,0.00,,,0.00,weatherlink.com 1.10,2013-02-15 12:29:00,
2013-02-15 07:44:00,31.8,29.0,30.04,East,101,0.0,1.0,90,0.00,,,0.00,weatherlink.com 1.10,2013-02-15 12:44:00,
2013-02-15 08:00:00,32.1,30.0,30.04,ESE,103,0.0,1.0,90,0.00,,,0.00,weatherlink.com 1.10,2013-02-15 13:00:00,
2013-02-15 08:14:00,32.8,30.0,30.04,ESE,119,0.0,1.0,89,0.00,,,0.00,weatherlink.com 1.10,2013-02-15 13:14:00,
2013-02-15 08:29:00,33.5,30.0,30.04,SE,127,1.0,3.0,88,0.00,,,0.00,weatherlink.com 1.10,2013-02-15 13:29:00,
2013-02-15 08:45:00,33.6,30.0,30.04,North,9,0.0,1.0,87,0.00,,,0.00,weatherlink.com 1.10,2013-02-15 13:45:00,
2013-02-15 09:00:00,34.2,31.0,30.04,NNE,12,0.0,3.0,86,0.00,,,0.00,weatherlink.com 1.10,2013-02-15 14:00:00,
2013-02-15 09:15:00,35.3,31.0,30.04,ESE,112,1.0,3.0,84,0.00,,,0.00,weatherlink.com 1.10,2013-02-15 14:15:00,
2013-02-15 09:30:00,36.9,32.0,30.04,ESE,121,1.0,2.0,81,0.00,,,0.00,weatherlink.com 1.10,2013-02-15 14:30:00,
2013-02-15 09:45:00,38.7,32.0,30.04,East,94,1.0,3.0,78,0.00,,,0.00,weatherlink.com 1.10,2013-02-15 14:45:00,
2013-02-15 10:00:00,39.9,32.0,30.04,ENE,67,0.0,3.0,73,0.00,,,0.00,weatherlink.com 1.10,2013-02-15 15:00:00,
2013-02-15 10:15:00,41.2,32.0,30.04,NW,309,2.0,3.0,71,0.00,,,0.00,weatherlink.com 1.10,2013-02-15 15:15:00,
2013-02-15 10:30:00,42.3,32.0,30.04,North,359,0.0,3.0,68,0.00,,,0.00,weatherlink.com 1.10,2013-02-15 15:30:00,
2013-02-15 10:45:00,44.0,32.0,30.04,North,9,0.0,3.0,64,0.00,,,0.00,weatherlink.com 1.10,2013-02-15 15:45:00,
2013-02-15 11:00:00,45.0,33.0,30.04,ESE,119,1.0,2.0,63,0.00,,,0.00,weatherlink.com 1.10,2013-02-15 16:00:00,
2013-02-15 11:15:00,45.6,34.0,30.03,ESE,122,0.0,3.0,63,0.00,,,0.00,weatherlink.com 1.10,2013-02-15 16:15:00,
2013-02-15 11:30:00,46.7,33.0,30.02,ESE,105,2.0,2.0,59,0.00,,,0.00,weatherlink.com 1.10,2013-02-15 16:30:00,
2013-02-15 11:45:00,47.1,33.0,30.02,SE,127,2.0,3.0,59,0.00,,,0.00,weatherlink.com 1.10,2013-02-15 16:45:00,
2013-02-15 12:00:00,48.7,34.0,30.00,NE,56,0.0,2.0,57,0.00,,,0.00,weatherlink.com 1.10,2013-02-15 17:00:00,
2013-02-15 12:15:00,50.1,33.0,30.00,SE,130,1.0,4.0,53,0.00,,,0.00,weatherlink.com 1.10,2013-02-15 17:15:00,
2013-02-15 12:31:00,51.5,33.0,29.99,ENE,65,0.0,4.0,50,0.00,,,0.00,weatherlink.com 1.10,2013-02-15 17:31:00,
2013-02-15 12:45:00,52.5,33.0,29.98,East,90,2.0,3.0,48,0.00,,,0.00,weatherlink.com 1.10,2013-02-15 17:45:00,
2013-02-15 13:01:00,53.9,34.0,29.97,SSE,163,0.0,3.0,47,0.00,,,0.00,weatherlink.com 1.10,2013-02-15 18:01:00,
2013-02-15 13:16:00,53.9,32.0,29.96,East,96,1.0,6.0,43,0.00,,,0.00,weatherlink.com 1.10,2013-02-15 18:16:00,
2013-02-15 13:31:00,54.3,31.0,29.96,East,101,1.0,7.0,42,0.00,,,0.00,weatherlink.com 1.10,2013-02-15 18:31:00,
2013-02-15 13:46:00,55.3,32.0,29.96,ENE,60,3.0,6.0,42,0.00,,,0.00,weatherlink.com 1.10,2013-02-15 18:46:00,
2013-02-15 14:01:00,55.4,33.0,29.95,SE,134,1.0,4.0,43,0.00,,,0.00,weatherlink.com 1.10,2013-02-15 19:01:00,
2013-02-15 14:16:00,55.9,32.0,29.95,East,94,1.0,4.0,40,0.00,,,0.00,weatherlink.com 1.10,2013-02-15 19:16:00,
2013-02-15 14:31:00,54.9,31.0,29.95,ESE,107,0.0,3.0,41,0.00,,,0.00,weatherlink.com 1.10,2013-02-15 19:31:00,
2013-02-15 14:46:00,54.8,32.0,29.94,NNE,20,3.0,4.0,43,0.00,,,0.00,weatherlink.com 1.10,2013-02-15 19:46:00,
2013-02-15 15:01:00,56.0,32.0,29.94,East,86,1.0,3.0,40,0.00,,,0.00,weatherlink.com 1.10,2013-02-15 20:01:00,
2013-02-15 15:16:00,55.7,32.0,29.94,ESE,112,1.0,3.0,40,0.00,,,0.00,weatherlink.com 1.10,2013-02-15 20:16:00,
2013-02-15 15:31:00,54.7,30.0,29.94,SE,125,0.0,6.0,39,0.00,,,0.00,weatherlink.com 1.10,2013-02-15 20:31:00,
2013-02-15 15:46:00,53.9,30.0,29.94,SE,130,2.0,4.0,40,0.00,,,0.00,weatherlink.com 1.10,2013-02-15 20:46:00,
2013-02-15 16:01:00,52.4,30.0,29.94,SE,124,2.0,3.0,42,0.00,,,0.00,weatherlink.com 1.10,2013-02-15 21:01:00,
2013-02-15 16:16:00,51.2,30.0,29.94,ESE,122,1.0,3.0,44,0.00,,,0.00,weatherlink.com 1.10,2013-02-15 21:16:00,
2013-02-15 16:31:00,49.9,29.0,29.94,ESE,120,1.0,4.0,45,0.00,,,0.00,weatherlink.com 1.10,2013-02-15 21:31:00,
2013-02-15 16:46:00,48.7,29.0,29.94,SE,129,0.0,2.0,47,0.00,,,0.00,weatherlink.com 1.10,2013-02-15 21:46:00,
2013-02-15 17:01:00,48.3,29.0,29.94,SE,129,0.0,3.0,48,0.00,,,0.00,weatherlink.com 1.10,2013-02-15 22:01:00,
2013-02-15 17:16:00,47.7,30.0,29.94,SE,128,0.0,1.0,50,0.00,,,0.00,weatherlink.com 1.10,2013-02-15 22:16:00,
2013-02-15 17:31:00,46.4,29.0,29.95,SE,129,0.0,0.0,51,0.00,,,0.00,weatherlink.com 1.10,2013-02-15 22:31:00,
2013-02-15 17:46:00,45.2,29.0,29.95,SE,129,0.0,0.0,53,0.00,,,0.00,weatherlink.com 1.10,2013-02-15 22:46:00,
2013-02-15 18:04:00,44.1,28.0,29.94,SE,129,0.0,0.0,54,0.00,,,0.00,weatherlink.com 1.10,2013-02-15 23:04:00,
2013-02-15 18:16:00,43.5,29.0,29.94,SE,128,0.0,0.0,56,0.00,,,0.00,weatherlink.com 1.10,2013-02-15 23:16:00,
2013-02-15 18:31:00,43.2,29.0,29.94,SE,129,0.0,0.0,57,0.00,,,0.00,weatherlink.com 1.10,2013-02-15 23:31:00,
2013-02-15 18:46:00,42.7,29.0,29.94,SE,130,0.0,0.0,58,0.00,,,0.00,weatherlink.com 1.10,2013-02-15 23:46:00,
2013-02-15 19:01:00,42.5,28.0,29.94,SE,129,0.0,0.0,58,0.00,,,0.00,weatherlink.com 1.10,2013-02-16 00:01:00,
2013-02-15 19:16:00,42.6,28.0,29.94,SE,130,0.0,1.0,57,0.00,,,0.00,weatherlink.com 1.10,2013-02-16 00:16:00,
2013-02-15 19:31:00,42.3,28.0,29.94,SE,130,0.0,1.0,58,0.00,,,0.00,weatherlink.com 1.10,2013-02-16 00:31:00,
2013-02-15 19:46:00,42.1,28.0,29.94,SE,135,0.0,1.0,58,0.00,,,0.00,weatherlink.com 1.10,2013-02-16 00:46:00,
2013-02-15 20:01:00,42.6,29.0,29.94,SE,136,0.0,1.0,58,0.00,,,0.00,weatherlink.com 1.10,2013-02-16 01:01:00,
2013-02-15 20:16:00,42.8,27.0,29.94,SE,134,0.0,1.0,54,0.00,,,0.00,weatherlink.com 1.10,2013-02-16 01:16:00,
2013-02-15 20:31:00,43.0,27.0,29.94,SSE,147,0.0,2.0,53,0.00,,,0.00,weatherlink.com 1.10,2013-02-16 01:31:00,
2013-02-15 20:46:00,42.3,27.0,29.95,SSE,147,0.0,1.0,56,0.00,,,0.00,weatherlink.com 1.10,2013-02-16 01:46:00,
2013-02-15 21:01:00,42.4,27.0,29.97,SSE,147,0.0,1.0,54,0.00,,,0.00,weatherlink.com 1.10,2013-02-16 02:01:00,
2013-02-15 21:16:00,42.2,27.0,29.95,SSE,147,0.0,0.0,55,0.00,,,0.00,weatherlink.com 1.10,2013-02-16 02:16:00,
2013-02-15 21:31:00,41.6,26.0,29.96,SE,146,0.0,0.0,55,0.00,,,0.00,weatherlink.com 1.10,2013-02-16 02:31:00,
2013-02-15 21:46:00,41.1,27.0,29.97,SSE,147,0.0,0.0,58,0.00,,,0.00,weatherlink.com 1.10,2013-02-16 02:46:00,
2013-02-15 22:01:00,40.8,27.0,29.97,SE,146,0.0,0.0,58,0.00,,,0.00,weatherlink.com 1.10,2013-02-16 03:01:00,
2013-02-15 22:16:00,41.2,26.0,29.97,SE,124,1.0,1.0,56,0.00,,,0.00,weatherlink.com 1.10,2013-02-16 03:16:00,
2013-02-15 22:31:00,40.8,28.0,29.98,SE,142,0.0,4.0,61,0.00,,,0.00,weatherlink.com 1.10,2013-02-16 03:31:00,
2013-02-15 22:46:00,39.9,29.0,29.99,SE,135,0.0,2.0,66,0.00,,,0.00,weatherlink.com 1.10,2013-02-16 03:46:00,
2013-02-15 23:01:00,39.3,30.0,29.98,ESE,121,1.0,3.0,70,0.00,,,0.00,weatherlink.com 1.10,2013-02-16 04:01:00,
2013-02-15 23:16:00,38.7,31.0,29.98,SE,124,0.0,2.0,73,0.00,,,0.00,weatherlink.com 1.10,2013-02-16 04:16:00,
2013-02-15 23:31:00,37.9,32.0,29.99,SE,124,1.0,2.0,78,0.00,,,0.00,weatherlink.com 1.10,2013-02-16 04:31:00,
2013-02-15 23:46:00,37.0,32.0,29.98,ESE,120,0.0,1.0,82,0.00,,,0.00,weatherlink.com 1.10,2013-02-16 04:46:00,